createdAt,value
2019-06-07T00:01:37.937Z,8.86
2019-06-07T00:04:08.557Z,8.79
2019-06-07T00:06:36.715Z,8.74
2019-06-07T00:09:09.645Z,8.68
2019-06-07T00:11:37.061Z,8.77
2019-06-07T00:14:05.587Z,8.81
2019-06-07T00:16:34.048Z,8.82
2019-06-07T00:19:02.405Z,8.78
2019-06-07T00:22:12.898Z,8.67
2019-06-07T00:24:00.978Z,8.65
2019-06-07T00:26:29.371Z,8.61
2019-06-07T00:28:57.760Z,8.72
2019-06-07T00:31:26.170Z,8.84
2019-06-07T00:33:54.563Z,8.96
2019-06-07T00:36:23.454Z,9.03
2019-06-07T00:38:51.955Z,8.94
2019-06-07T00:41:22.221Z,8.73
2019-06-07T00:43:50.457Z,8.66
2019-06-07T00:46:20.967Z,8.61
2019-06-07T00:48:48.993Z,8.62
2019-06-07T00:51:19.026Z,8.79
2019-06-07T00:53:47.521Z,8.82
2019-06-07T00:56:16.325Z,8.82
2019-06-07T00:58:44.675Z,8.78
2019-06-07T01:01:15.775Z,8.70
2019-06-07T01:03:43.520Z,8.70
2019-06-07T01:06:12.609Z,8.65
2019-06-07T01:08:41.396Z,8.59
2019-06-07T01:11:09.784Z,8.50
2019-06-07T01:13:38.173Z,8.46
2019-06-07T01:16:06.579Z,8.45
2019-06-07T01:18:39.116Z,8.54
2019-06-07T01:21:05.152Z,8.71
2019-06-07T01:24:08.125Z,8.82
2019-06-07T01:26:03.678Z,8.90
2019-06-07T01:28:32.070Z,8.88
2019-06-07T01:31:00.504Z,8.74
2019-06-07T01:33:49.765Z,8.58
2019-06-07T01:35:58.999Z,8.44
2019-06-07T01:38:29.826Z,8.28
2019-06-07T01:40:57.564Z,8.23
2019-06-07T01:43:28.431Z,8.13
2019-06-07T01:45:56.043Z,8.05
2019-06-07T01:48:29.543Z,8.01
2019-06-07T01:50:54.552Z,8.11
2019-06-07T01:53:25.742Z,8.28
2019-06-07T01:55:53.107Z,8.42
2019-06-07T01:58:22.240Z,8.44
2019-06-07T02:00:51.266Z,8.36
2019-06-07T02:03:22.291Z,8.26
2019-06-07T02:05:49.811Z,8.17
2019-06-07T02:08:20.044Z,8.05
2019-06-07T02:10:48.598Z,7.96
2019-06-07T02:13:16.982Z,7.95
2019-06-07T02:15:45.843Z,8.05
2019-06-07T02:18:14.651Z,8.13
2019-06-07T02:20:43.055Z,8.20
2019-06-07T02:23:11.437Z,8.10
2019-06-07T02:25:48.752Z,8.05
2019-06-07T02:28:27.245Z,8.10
2019-06-07T02:30:50.585Z,8.21
2019-06-07T02:33:10.275Z,8.22
2019-06-07T02:35:40.184Z,8.13
2019-06-07T02:38:08.790Z,8.02
2019-06-07T02:40:37.723Z,7.89
2019-06-07T02:43:06.333Z,7.79
2019-06-07T02:45:42.205Z,7.72
2019-06-07T02:48:05.107Z,7.65
2019-06-07T02:50:38.297Z,7.61
2019-06-07T02:53:04.047Z,7.62
2019-06-07T02:55:44.770Z,7.59
2019-06-07T02:58:02.571Z,7.54
2019-06-07T03:01:08.932Z,7.40
2019-06-07T03:03:19.816Z,7.24
2019-06-07T03:05:48.746Z,7.11
2019-06-07T03:08:18.411Z,7.06
2019-06-07T03:10:49.155Z,7.06
2019-06-07T03:13:20.985Z,7.13
2019-06-07T03:15:52.083Z,7.13
2019-06-07T03:18:41.581Z,7.12
2019-06-07T03:21:13.721Z,7.08
2019-06-07T03:23:43.712Z,7.11
2019-06-07T03:26:12.032Z,7.08
2019-06-07T03:28:40.537Z,7.00
2019-06-07T03:31:08.938Z,6.88
2019-06-07T03:33:42.689Z,6.81
2019-06-07T03:36:23.511Z,6.76
2019-06-07T03:38:39.656Z,6.74
2019-06-07T03:41:07.701Z,6.81
2019-06-07T03:43:40.392Z,6.87
2019-06-07T03:46:06.480Z,6.95
2019-06-07T03:48:36.401Z,6.97
2019-06-07T03:51:23.696Z,7.00
2019-06-07T03:53:37.209Z,7.03
2019-06-07T03:56:05.753Z,7.02
2019-06-07T03:58:41.179Z,6.91
2019-06-07T04:01:04.434Z,6.86
2019-06-07T04:03:42.715Z,6.81
2019-06-07T04:06:02.933Z,6.78
2019-06-07T04:08:33.548Z,6.78
2019-06-07T04:11:01.462Z,6.89
2019-06-07T04:13:34.289Z,7.01
2019-06-07T04:16:00.057Z,7.07
2019-06-07T04:18:28.445Z,7.06
2019-06-07T04:20:56.838Z,7.05
2019-06-07T04:23:28.315Z,7.08
2019-06-07T04:25:55.403Z,7.17
2019-06-07T04:29:15.629Z,7.29
2019-06-07T04:30:53.885Z,7.48
2019-06-07T04:33:22.273Z,7.79
2019-06-07T04:35:51.729Z,8.15
2019-06-07T04:38:20.137Z,8.36
2019-06-07T04:40:48.606Z,8.56
2019-06-07T04:43:16.990Z,8.79
2019-06-07T04:45:50.682Z,9.04
2019-06-07T04:48:18.857Z,9.24
2019-06-07T04:50:49.756Z,9.43
2019-06-07T04:53:18.160Z,9.78
2019-06-07T04:55:46.547Z,9.90
2019-06-07T04:58:14.936Z,9.91
2019-06-07T05:00:52.768Z,10.07
2019-06-07T05:03:13.477Z,10.36
2019-06-07T05:05:43.867Z,10.67
2019-06-07T05:08:27.375Z,11.14
2019-06-07T05:10:43.880Z,11.61
2019-06-07T05:13:12.276Z,11.86
2019-06-07T05:15:42.281Z,11.83
2019-06-07T05:18:11.196Z,11.83
2019-06-07T05:20:41.551Z,11.90
2019-06-07T05:23:09.733Z,12.01
2019-06-07T05:25:42.233Z,12.20
2019-06-07T05:28:08.298Z,12.24
2019-06-07T05:33:10.232Z,12.40
2019-06-07T05:35:41.801Z,12.38
2019-06-07T05:38:09.341Z,12.39
2019-06-07T05:40:43.730Z,12.45
2019-06-07T05:43:23.732Z,12.52
2019-06-07T05:45:52.416Z,12.59
2019-06-07T05:48:20.901Z,12.85
2019-06-07T05:50:56.564Z,13.11
2019-06-07T05:53:19.748Z,13.45
2019-06-07T05:55:48.144Z,13.86
2019-06-07T05:58:17.609Z,14.22
2019-06-07T06:00:47.567Z,14.39
2019-06-07T06:03:16.131Z,14.58
2019-06-07T06:05:54.171Z,14.83
2019-06-07T06:08:14.662Z,15.25
2019-06-07T06:10:48.330Z,15.40
2019-06-07T06:13:13.187Z,15.60
2019-06-07T06:15:55.994Z,15.72
2019-06-07T06:18:12.429Z,15.69
2019-06-07T06:21:05.271Z,15.64
2019-06-07T06:23:10.955Z,15.58
2019-06-07T06:25:42.695Z,15.40
2019-06-07T06:28:12.355Z,15.24
2019-06-07T06:30:41.224Z,14.72
2019-06-07T06:33:27.049Z,14.57
2019-06-07T06:35:40.192Z,14.67
2019-06-07T06:38:08.586Z,14.48
2019-06-07T06:40:38.924Z,14.96
2019-06-07T06:43:07.179Z,14.96
2019-06-07T06:45:35.617Z,15.14
2019-06-07T06:48:04.058Z,15.28
2019-06-07T06:50:32.540Z,15.39
2019-06-07T06:53:00.923Z,15.20
2019-06-07T06:55:29.329Z,15.41
2019-06-07T06:57:57.755Z,15.46
2019-06-07T07:00:53.616Z,15.60
2019-06-07T07:03:56.522Z,15.77
2019-06-07T07:05:49.738Z,15.93
2019-06-07T07:08:16.337Z,15.82
2019-06-07T07:10:48.643Z,15.97
2019-06-07T07:13:16.548Z,15.86
2019-06-07T07:15:47.503Z,15.80
2019-06-07T07:18:15.085Z,15.92
2019-06-07T07:20:45.352Z,15.98
2019-06-07T07:23:13.595Z,15.98
2019-06-07T07:25:43.556Z,16.14
2019-06-07T07:28:12.214Z,16.30
2019-06-07T07:30:52.576Z,16.49
2019-06-07T07:33:19.306Z,16.77
2019-06-07T07:36:10.837Z,17.02
2019-06-07T07:38:20.774Z,17.09
2019-06-07T07:41:01.572Z,17.19
2019-06-07T07:43:18.638Z,17.33
2019-06-07T07:45:55.078Z,17.46
2019-06-07T07:48:20.777Z,17.58
2019-06-07T07:50:53.763Z,17.69
2019-06-07T07:53:19.295Z,17.80
2019-06-07T07:55:51.511Z,17.96
2019-06-07T07:58:17.838Z,17.91
2019-06-07T08:00:54.945Z,18.09
2019-06-07T08:03:16.431Z,18.26
2019-06-07T08:05:45.594Z,18.34
2019-06-07T08:08:15.034Z,18.43
2019-06-07T08:10:43.421Z,18.50
2019-06-07T08:13:24.997Z,18.55
2019-06-07T08:15:41.956Z,18.63
2019-06-07T08:18:10.477Z,18.58
2019-06-07T08:20:38.915Z,18.56
2019-06-07T08:23:07.365Z,18.70
2019-06-07T08:25:35.823Z,18.73
2019-06-07T08:28:04.228Z,18.85
2019-06-07T08:30:50.201Z,18.71
2019-06-07T08:33:24.535Z,18.77
2019-06-07T08:40:33.731Z,19.32
2019-06-07T08:43:18.191Z,19.60
2019-06-07T08:45:32.318Z,19.61
2019-06-07T08:48:07.460Z,19.73
2019-06-07T08:50:31.125Z,19.91
2019-06-07T08:53:10.858Z,19.79
2019-06-07T08:55:29.665Z,20.00
2019-06-07T08:58:04.085Z,20.21
2019-06-07T09:00:45.474Z,20.28
2019-06-07T09:03:05.180Z,20.25
2019-06-07T09:05:29.262Z,20.33
2019-06-07T09:08:21.580Z,20.47
2019-06-07T09:10:28.010Z,20.56
2019-06-07T09:13:00.372Z,20.65
2019-06-07T09:15:26.607Z,20.79
2019-06-07T09:18:37.869Z,20.67
2019-06-07T09:20:36.799Z,20.63
2019-06-07T09:23:04.191Z,20.76
2019-06-07T09:25:28.755Z,20.75
2019-06-07T09:28:00.691Z,20.70
2019-06-07T09:30:42.815Z,20.53
2019-06-07T09:33:12.165Z,20.60
2019-06-07T09:35:40.735Z,20.35
2019-06-07T09:38:23.343Z,20.45
2019-06-07T09:40:40.324Z,20.65
2019-06-07T09:43:59.143Z,20.62
2019-06-07T09:45:38.991Z,20.62
2019-06-07T09:48:13.653Z,20.54
2019-06-07T09:50:37.597Z,20.61
2019-06-07T09:53:18.849Z,20.59
2019-06-07T09:55:36.309Z,20.63
2019-06-07T09:58:47.544Z,20.87
2019-06-07T10:00:41.030Z,21.12
2019-06-07T10:03:16.766Z,21.42
2019-06-07T10:05:35.576Z,21.62
2019-06-07T10:08:25.876Z,21.59
2019-06-07T10:13:04.068Z,21.51
2019-06-07T10:15:32.746Z,21.56
2019-06-07T10:18:01.226Z,21.72
2019-06-07T10:20:29.624Z,21.78
2019-06-07T10:22:59.429Z,21.93
2019-06-07T10:25:28.017Z,21.90
2019-06-07T10:27:56.421Z,22.03
2019-06-07T10:30:24.938Z,22.10
2019-06-07T10:32:53.344Z,22.41
2019-06-07T10:35:21.741Z,22.65
2019-06-07T10:37:50.146Z,22.46
2019-06-07T10:40:18.885Z,22.56
2019-06-07T10:42:47.268Z,22.76
2019-06-07T10:45:15.898Z,23.04
2019-06-07T10:47:44.323Z,23.03
2019-06-07T10:50:13.649Z,23.33
2019-06-07T10:52:42.040Z,23.41
2019-06-07T10:55:10.889Z,23.13
2019-06-07T10:57:39.283Z,23.31
2019-06-07T11:00:11.861Z,23.49
2019-06-07T11:02:40.754Z,23.49
2019-06-07T11:05:10.191Z,23.58
2019-06-07T11:07:38.669Z,23.80
2019-06-07T11:10:14.997Z,23.76
2019-06-07T11:12:37.871Z,23.61
2019-06-07T11:15:08.809Z,23.28
2019-06-07T11:17:37.425Z,23.48
2019-06-07T11:20:08.361Z,23.39
2019-06-07T11:22:36.890Z,23.47
2019-06-07T11:25:07.761Z,23.57
2019-06-07T11:27:36.598Z,23.47
2019-06-07T11:30:08.872Z,23.42
2019-06-07T11:32:37.359Z,23.77
2019-06-07T11:35:08.481Z,23.97
2019-06-07T11:37:36.974Z,24.11
2019-06-07T11:40:27.813Z,24.07
2019-06-07T11:42:40.353Z,24.13
2019-06-07T11:45:10.873Z,23.93
2019-06-07T11:47:40.449Z,23.78
2019-06-07T11:50:09.578Z,23.60
2019-06-07T11:52:38.196Z,23.54
2019-06-07T11:55:10.964Z,23.39
2019-06-07T11:57:39.585Z,23.75
2019-06-07T12:00:13.626Z,23.80
2019-06-07T12:02:42.071Z,24.03
2019-06-07T12:05:14.805Z,24.28
2019-06-07T12:07:40.809Z,23.99
2019-06-07T12:10:10.800Z,24.15
2019-06-07T12:12:39.256Z,24.04
2019-06-07T12:15:08.865Z,23.75
2019-06-07T12:17:37.720Z,23.67
2019-06-07T12:20:08.764Z,23.75
2019-06-07T12:22:37.028Z,23.68
2019-06-07T12:25:10.418Z,23.41
2019-06-07T12:27:38.930Z,23.61
2019-06-07T12:30:11.181Z,23.42
2019-06-07T12:32:38.416Z,23.58
2019-06-07T12:35:11.477Z,23.72
2019-06-07T12:37:44.295Z,23.81
2019-06-07T12:40:15.592Z,23.70
2019-06-07T12:42:41.405Z,23.59
2019-06-07T12:45:10.178Z,23.84
2019-06-07T12:47:38.584Z,23.85
2019-06-07T12:50:08.543Z,23.70
2019-06-07T12:52:36.985Z,23.51
2019-06-07T12:55:09.102Z,23.20
2019-06-07T12:57:37.514Z,23.20
2019-06-07T13:00:14.094Z,23.11
2019-06-07T13:02:42.743Z,23.12
2019-06-07T13:05:11.631Z,23.15
2019-06-07T13:07:39.999Z,23.06
2019-06-07T13:10:09.362Z,22.94
2019-06-07T13:12:37.773Z,22.85
2019-06-07T13:15:09.402Z,22.67
2019-06-07T13:17:37.985Z,22.75
2019-06-07T13:20:08.395Z,22.88
2019-06-07T13:22:36.846Z,22.95
2019-06-07T13:25:07.355Z,23.01
2019-06-07T13:27:35.829Z,23.08
2019-06-07T13:30:10.245Z,23.08
2019-06-07T13:32:36.971Z,23.01
2019-06-07T13:35:08.680Z,22.99
2019-06-07T13:37:37.145Z,22.98
2019-06-07T13:40:06.902Z,22.94
2019-06-07T13:42:35.679Z,22.96
2019-06-07T13:45:08.398Z,22.92
2019-06-07T13:47:36.892Z,23.03
2019-06-07T13:50:07.206Z,23.06
2019-06-07T13:52:35.604Z,23.05
2019-06-07T13:55:05.338Z,23.07
2019-06-07T13:57:33.778Z,23.16
2019-06-07T14:00:10.296Z,23.12
2019-06-07T14:02:32.576Z,23.04
2019-06-07T14:05:01.022Z,22.85
2019-06-07T14:07:30.111Z,21.54
2019-06-07T14:09:58.492Z,21.54
2019-06-07T14:12:27.846Z,21.20
2019-06-07T14:14:56.260Z,20.68
2019-06-07T14:17:25.255Z,19.80
2019-06-07T14:19:53.767Z,19.07
2019-06-07T14:22:22.737Z,18.37
2019-06-07T14:24:51.227Z,17.92
2019-06-07T14:27:19.639Z,17.18
2019-06-07T14:29:48.057Z,16.53
2019-06-07T14:32:16.466Z,16.23
2019-06-07T14:34:45.101Z,15.65
2019-06-07T14:37:13.526Z,15.63
2019-06-07T14:39:41.992Z,15.73
2019-06-07T14:42:10.644Z,15.72
2019-06-07T14:44:39.246Z,15.80
2019-06-07T14:47:08.087Z,15.94
2019-06-07T14:49:36.549Z,16.03
2019-06-07T14:52:05.036Z,16.22
2019-06-07T14:54:36.114Z,16.23
2019-06-07T14:57:03.786Z,16.11
2019-06-07T14:59:32.851Z,16.13
2019-06-07T15:02:01.635Z,15.89
2019-06-07T15:04:30.720Z,15.69
2019-06-07T15:06:59.234Z,15.47
2019-06-07T15:09:29.032Z,15.33
2019-06-07T15:11:57.606Z,15.28
2019-06-07T15:14:27.352Z,15.13
2019-06-07T15:16:55.794Z,14.91
2019-06-07T15:19:24.439Z,14.83
2019-06-07T15:21:52.886Z,14.74
2019-06-07T15:24:21.267Z,14.78
2019-06-07T15:26:49.675Z,14.76
2019-06-07T15:29:18.086Z,14.71
2019-06-07T15:31:46.475Z,14.58
2019-06-07T15:34:15.100Z,14.41
2019-06-07T15:36:43.795Z,14.32
2019-06-07T15:39:12.206Z,14.19
2019-06-07T15:41:40.577Z,14.09
2019-06-07T15:44:09.001Z,14.06
2019-06-07T15:46:37.991Z,13.97
2019-06-07T15:49:06.441Z,13.88
2019-06-07T15:51:36.824Z,13.85
2019-06-07T15:54:05.767Z,13.83
2019-06-07T15:56:34.642Z,13.85
2019-06-07T15:59:03.179Z,13.66
2019-06-07T16:01:33.329Z,13.64
2019-06-07T16:04:01.982Z,13.58
2019-06-07T16:06:31.949Z,13.54
2019-06-07T16:09:00.531Z,13.50
2019-06-07T16:11:29.315Z,13.50
2019-06-07T16:13:57.741Z,13.49
2019-06-07T16:16:26.134Z,13.64
2019-06-07T16:18:54.535Z,13.62
2019-06-07T16:21:23.252Z,13.61
2019-06-07T16:23:51.649Z,13.58
2019-06-07T16:26:20.042Z,13.61
2019-06-07T16:28:48.471Z,13.69
2019-06-07T16:31:16.853Z,13.78
2019-06-07T16:33:45.295Z,13.79
2019-06-07T16:36:13.938Z,13.78
2019-06-07T16:38:42.432Z,13.72
2019-06-07T16:41:10.802Z,13.34
2019-06-07T16:43:40.448Z,13.25
2019-06-07T16:46:09.008Z,13.21
2019-06-07T16:48:38.730Z,13.15
2019-06-07T16:51:07.213Z,13.08
2019-06-07T16:53:36.163Z,13.03
2019-06-07T16:56:05.642Z,12.86
2019-06-07T16:58:34.035Z,12.78
2019-06-07T17:01:02.479Z,12.85
2019-06-07T17:03:30.868Z,12.86
2019-06-07T17:05:59.295Z,12.89
2019-06-07T17:08:27.704Z,12.96
2019-06-07T17:10:56.102Z,13.06
2019-06-07T17:13:33.080Z,13.16
2019-06-07T17:15:54.636Z,13.16
2019-06-07T17:18:24.394Z,13.10
2019-06-07T17:20:52.780Z,13.07
2019-06-07T17:23:21.162Z,13.07
2019-06-07T17:25:49.836Z,13.10
2019-06-07T17:28:18.258Z,13.14
2019-06-07T17:30:48.074Z,13.21
2019-06-07T17:33:16.715Z,13.29
2019-06-07T17:35:46.470Z,13.34
2019-06-07T17:38:15.373Z,13.43
2019-06-07T17:40:44.941Z,13.55
2019-06-07T17:43:13.487Z,13.71
2019-06-07T17:45:43.317Z,13.79
2019-06-07T17:48:11.855Z,13.73
2019-06-07T17:50:41.541Z,13.80
2019-06-07T17:53:10.019Z,13.85
2019-06-07T17:55:38.413Z,13.94
2019-06-07T17:58:07.088Z,13.95
2019-06-07T18:00:51.034Z,14.01
2019-06-07T18:03:20.102Z,14.13
2019-06-07T18:05:53.558Z,14.20
2019-06-07T18:08:25.015Z,14.12
2019-06-07T18:10:54.120Z,13.97
2019-06-07T18:13:22.749Z,14.00
2019-06-07T18:15:56.715Z,14.04
2019-06-07T18:18:21.680Z,14.07
2019-06-07T18:20:51.713Z,14.10
2019-06-07T18:23:20.253Z,14.06
2019-06-07T18:25:48.723Z,13.93
2019-06-07T18:28:17.261Z,13.86
2019-06-07T18:30:46.512Z,13.84
2019-06-07T18:33:15.065Z,13.98
2019-06-07T18:35:43.819Z,14.03
2019-06-07T18:38:12.247Z,14.07
2019-06-07T18:40:42.170Z,14.08
2019-06-07T18:43:10.558Z,14.09
2019-06-07T18:45:39.057Z,14.22
2019-06-07T18:48:07.455Z,14.21
2019-06-07T18:50:36.418Z,14.23
2019-06-07T18:53:04.977Z,14.28
2019-06-07T18:55:33.698Z,14.19
2019-06-07T18:58:02.092Z,14.11
2019-06-07T19:00:33.266Z,14.11
2019-06-07T19:03:02.009Z,14.07
2019-06-07T19:05:30.404Z,14.19
2019-06-07T19:07:59.894Z,14.22
2019-06-07T19:10:29.234Z,14.17
2019-06-07T19:12:57.607Z,14.11
2019-06-07T19:15:26.868Z,14.11
2019-06-07T19:17:56.142Z,14.12
2019-06-07T19:20:24.958Z,14.10
2019-06-07T19:22:54.216Z,14.12
2019-06-07T19:25:23.717Z,14.19
2019-06-07T19:27:52.782Z,14.23
2019-06-07T19:30:21.269Z,14.15
2019-06-07T19:32:51.308Z,14.16
2019-06-07T19:35:20.285Z,14.20
2019-06-07T19:37:48.720Z,14.21
2019-06-07T19:40:17.637Z,14.21
2019-06-07T19:42:46.029Z,14.24
2019-06-07T19:45:31.686Z,14.26
2019-06-07T19:47:45.290Z,14.29
2019-06-07T19:50:14.122Z,14.28
2019-06-07T19:52:42.537Z,14.29
2019-06-07T19:55:11.284Z,14.28
2019-06-07T19:57:39.667Z,14.27
2019-06-07T20:00:14.124Z,14.26
2019-06-07T20:02:39.442Z,14.26
2019-06-07T20:05:10.873Z,14.29
2019-06-07T20:07:39.300Z,14.33
2019-06-07T20:10:08.131Z,14.35
2019-06-07T20:12:36.593Z,14.36
2019-06-07T20:15:27.050Z,14.37
2019-06-07T20:17:38.656Z,14.35
2019-06-07T20:20:09.493Z,14.41
2019-06-07T20:22:37.898Z,14.43
2019-06-07T20:25:07.324Z,14.45
2019-06-07T20:27:35.720Z,14.48
2019-06-07T20:30:10.403Z,14.51
2019-06-07T20:32:38.793Z,14.53
2019-06-07T20:35:08.390Z,14.54
2019-06-07T20:37:37.016Z,14.57
2019-06-07T20:40:22.690Z,14.61
2019-06-07T20:42:37.876Z,14.62
2019-06-07T20:45:08.283Z,14.63
2019-06-07T20:47:37.115Z,14.63
2019-06-07T20:50:08.782Z,14.63
2019-06-07T20:52:37.333Z,14.65
2019-06-07T20:55:07.113Z,14.64
2019-06-07T20:57:35.440Z,14.69
2019-06-07T21:00:14.597Z,14.66
2019-06-07T21:02:38.447Z,14.67
2019-06-07T21:05:09.572Z,14.62
2019-06-07T21:07:38.393Z,14.57
2019-06-07T21:10:08.336Z,14.54
2019-06-07T21:12:36.917Z,14.54
2019-06-07T21:15:11.809Z,14.50
2019-06-07T21:17:38.683Z,14.43
2019-06-07T21:20:13.340Z,14.30
2019-06-07T21:22:38.372Z,14.21
2019-06-07T21:25:07.607Z,14.06
2019-06-07T21:27:35.997Z,13.92
2019-06-07T21:30:07.306Z,13.79
2019-06-07T21:32:35.677Z,13.72
2019-06-07T21:35:10.183Z,13.73
2019-06-07T21:37:38.832Z,13.73
2019-06-07T21:40:08.181Z,13.75
2019-06-07T21:42:36.909Z,13.81
2019-06-07T21:45:07.928Z,13.81
2019-06-07T21:47:36.737Z,13.86
2019-06-07T21:50:08.987Z,13.87
2019-06-07T21:52:37.432Z,13.92
2019-06-07T21:55:08.856Z,13.94
2019-06-07T21:57:37.987Z,13.94
2019-06-07T22:00:21.678Z,13.97
2019-06-07T22:02:50.151Z,14.00
2019-06-07T22:05:18.691Z,14.01
2019-06-07T22:07:47.102Z,13.98
2019-06-07T22:10:15.565Z,13.96
2019-06-07T22:12:43.959Z,13.92
2019-06-07T22:15:31.094Z,13.93
2019-06-07T22:17:42.877Z,13.94
2019-06-07T22:20:12.725Z,13.91
2019-06-07T22:22:41.284Z,13.92
2019-06-07T22:25:11.082Z,13.90
2019-06-07T22:27:39.652Z,13.89
2019-06-07T22:30:10.545Z,13.87
2019-06-07T22:32:39.418Z,13.79
2019-06-07T22:35:08.986Z,13.78
2019-06-07T22:37:37.434Z,13.77
2019-06-07T22:40:10.709Z,13.73
2019-06-07T22:42:39.174Z,13.70
2019-06-07T22:45:10.620Z,13.69
2019-06-07T22:47:38.529Z,13.70
2019-06-07T22:50:12.632Z,13.68
2019-06-07T22:52:41.232Z,13.61
2019-06-07T22:55:10.711Z,13.63
2019-06-07T22:57:56.976Z,13.60
2019-06-07T23:00:27.447Z,13.66
2019-06-07T23:02:55.913Z,13.59
2019-06-07T23:05:24.411Z,13.57
2019-06-07T23:07:53.073Z,13.52
2019-06-07T23:10:21.775Z,13.52
2019-06-07T23:12:50.203Z,13.52
2019-06-07T23:15:20.815Z,13.50
2019-06-07T23:17:49.558Z,13.47
2019-06-07T23:20:20.187Z,13.46
2019-06-07T23:22:48.647Z,13.42
2019-06-07T23:25:21.954Z,13.44
2019-06-07T23:27:47.315Z,13.40
2019-06-07T23:30:16.679Z,13.37
2019-06-07T23:32:45.124Z,13.40
2019-06-07T23:35:14.848Z,13.34
2019-06-07T23:37:43.637Z,13.36
2019-06-07T23:40:13.162Z,13.40
2019-06-07T23:42:41.692Z,13.38
2019-06-07T23:45:12.066Z,13.37
2019-06-07T23:47:40.270Z,13.38
2019-06-07T23:50:08.963Z,13.41
2019-06-07T23:52:37.358Z,13.36
2019-06-07T23:55:08.850Z,13.35
2019-06-07T23:57:37.265Z,13.37
